SU7PY HEGN-HEOC
Flight info
| Callsign | SU7PY |
|---|---|
| Flight time | 1h 15m |
| Altitude | 20000 |
| Route | HGD V608 NABED A727 CVO |
| Aircraft | TBM8/L-SDFGRWY/S |
Departure
| Time | 2026-04-27 12:02 |
|---|---|
| Airport | Hurghada International Airport (HEGN) |
Arrival
| Time | 2026-04-27 13:18 |
|---|---|
| Airport | October Airport (HEOC) |
| Time | Latitude | Longitude | Altitude | Speed | Heading |
|---|---|---|---|---|---|
| 2026-04-27 11:19 | 27.18651 | 33.80652 | 53 ft | 0 kts | 345° |
| 2026-04-27 11:45 | 27.18660 | 33.80649 | 52 ft | 1 kts | 344° |
| 2026-04-27 11:45 | 27.18671 | 33.80645 | 50 ft | 5 kts | 343° |
| 2026-04-27 11:45 | 27.18675 | 33.80580 | 53 ft | 9 kts | 255° |
| 2026-04-27 11:45 | 27.18659 | 33.80515 | 53 ft | 8 kts | 255° |
| 2026-04-27 11:46 | 27.18645 | 33.80456 | 53 ft | 7 kts | 253° |
| 2026-04-27 11:46 | 27.18632 | 33.80402 | 53 ft | 7 kts | 255° |
| 2026-04-27 11:46 | 27.18620 | 33.80351 | 51 ft | 7 kts | 255° |
| 2026-04-27 11:46 | 27.18607 | 33.80300 | 53 ft | 7 kts | 255° |
| 2026-04-27 11:47 | 27.18594 | 33.80246 | 51 ft | 7 kts | 255° |
| 2026-04-27 11:47 | 27.18580 | 33.80188 | 51 ft | 8 kts | 255° |
| 2026-04-27 11:47 | 27.18557 | 33.80110 | 47 ft | 14 kts | 239° |
| 2026-04-27 11:47 | 27.18466 | 33.80091 | 45 ft | 16 kts | 166° |
| 2026-04-27 11:48 | 27.18360 | 33.80122 | 46 ft | 16 kts | 165° |
| 2026-04-27 11:48 | 27.18253 | 33.80154 | 47 ft | 16 kts | 165° |
| 2026-04-27 11:48 | 27.18141 | 33.80186 | 47 ft | 17 kts | 167° |
| 2026-04-27 11:48 | 27.18027 | 33.80221 | 48 ft | 17 kts | 165° |
| 2026-04-27 11:49 | 27.17909 | 33.80255 | 48 ft | 18 kts | 165° |
| 2026-04-27 11:49 | 27.17786 | 33.80290 | 48 ft | 19 kts | 168° |
| 2026-04-27 11:49 | 27.17664 | 33.80331 | 50 ft | 18 kts | 159° |
| 2026-04-27 11:49 | 27.17534 | 33.80372 | 48 ft | 20 kts | 166° |
| 2026-04-27 11:50 | 27.17431 | 33.80328 | 45 ft | 19 kts | 273° |
| 2026-04-27 11:50 | 27.17393 | 33.80210 | 47 ft | 15 kts | 256° |
| 2026-04-27 11:50 | 27.17372 | 33.80113 | 49 ft | 12 kts | 254° |
| 2026-04-27 11:50 | 27.17352 | 33.80031 | 50 ft | 10 kts | 253° |
| 2026-04-27 11:51 | 27.17336 | 33.79961 | 52 ft | 8 kts | 256° |
| 2026-04-27 11:51 | 27.17326 | 33.79915 | 52 ft | 4 kts | 256° |
| 2026-04-27 11:51 | 27.17324 | 33.79906 | 54 ft | 0 kts | 257° |
| 2026-04-27 11:56 | 27.17322 | 33.79898 | 56 ft | 7 kts | 255° |
| 2026-04-27 11:56 | 27.17314 | 33.79860 | 57 ft | 0 kts | 257° |
| 2026-04-27 11:58 | 27.17314 | 33.79858 | 57 ft | 3 kts | 256° |
| 2026-04-27 11:59 | 27.17290 | 33.79754 | 72 ft | 20 kts | 257° |
| 2026-04-27 11:59 | 27.17253 | 33.79620 | 91 ft | 15 kts | 249° |
| 2026-04-27 11:59 | 27.17215 | 33.79527 | 96 ft | 13 kts | 227° |
| 2026-04-27 11:59 | 27.17109 | 33.79527 | 99 ft | 18 kts | 165° |
| 2026-04-27 12:00 | 27.16988 | 33.79563 | 102 ft | 17 kts | 165° |
| 2026-04-27 12:00 | 27.16875 | 33.79597 | 102 ft | 17 kts | 166° |
| 2026-04-27 12:00 | 27.16752 | 33.79632 | 101 ft | 18 kts | 165° |
| 2026-04-27 12:00 | 27.16629 | 33.79668 | 103 ft | 18 kts | 165° |
| 2026-04-27 12:01 | 27.16509 | 33.79704 | 104 ft | 18 kts | 166° |
| 2026-04-27 12:01 | 27.16398 | 33.79680 | 107 ft | 16 kts | 226° |
| 2026-04-27 12:01 | 27.16360 | 33.79574 | 107 ft | 14 kts | 289° |
| 2026-04-27 12:01 | 27.16424 | 33.79532 | 108 ft | 13 kts | 345° |
| 2026-04-27 12:02 | 27.16679 | 33.79456 | 107 ft | 64 kts | 345° |
| 2026-04-27 12:02 | 27.17251 | 33.79281 | 125 ft | 102 kts | 344° |
| 2026-04-27 12:02 | 27.17958 | 33.79081 | 454 ft | 108 kts | 352° |
| 2026-04-27 12:02 | 27.18741 | 33.78906 | 746 ft | 123 kts | 351° |
| 2026-04-27 12:03 | 27.19592 | 33.78708 | 1246 ft | 124 kts | 346° |
| 2026-04-27 12:03 | 27.20462 | 33.78479 | 1634 ft | 131 kts | 343° |
| 2026-04-27 12:03 | 27.21351 | 33.78244 | 2057 ft | 131 kts | 343° |
| 2026-04-27 12:03 | 27.22245 | 33.78002 | 2509 ft | 133 kts | 341° |
| 2026-04-27 12:04 | 27.23146 | 33.77753 | 3000 ft | 135 kts | 342° |
| 2026-04-27 12:04 | 27.24052 | 33.77512 | 3432 ft | 136 kts | 341° |
| 2026-04-27 12:04 | 27.24985 | 33.77264 | 3891 ft | 136 kts | 340° |
| 2026-04-27 12:04 | 27.25897 | 33.77020 | 4328 ft | 137 kts | 339° |
| 2026-04-27 12:05 | 27.26831 | 33.76764 | 4784 ft | 139 kts | 339° |
| 2026-04-27 12:05 | 27.27782 | 33.76508 | 5227 ft | 141 kts | 339° |
| 2026-04-27 12:05 | 27.28742 | 33.76249 | 5715 ft | 143 kts | 339° |
| 2026-04-27 12:05 | 27.29713 | 33.75990 | 6208 ft | 144 kts | 339° |
| 2026-04-27 12:06 | 27.30692 | 33.75727 | 6629 ft | 145 kts | 338° |
| 2026-04-27 12:06 | 27.31680 | 33.75461 | 7043 ft | 147 kts | 338° |
| 2026-04-27 12:06 | 27.32622 | 33.75081 | 7456 ft | 140 kts | 317° |
| 2026-04-27 12:06 | 27.33243 | 33.74289 | 7877 ft | 134 kts | 295° |
| 2026-04-27 12:07 | 27.33469 | 33.73294 | 8305 ft | 131 kts | 270° |
| 2026-04-27 12:07 | 27.33286 | 33.72287 | 8727 ft | 133 kts | 254° |
| 2026-04-27 12:07 | 27.32991 | 33.71313 | 9139 ft | 133 kts | 256° |
| 2026-04-27 12:07 | 27.32705 | 33.70318 | 9587 ft | 134 kts | 256° |
| 2026-04-27 12:08 | 27.32415 | 33.69326 | 10010 ft | 133 kts | 256° |
| 2026-04-27 12:08 | 27.32125 | 33.68333 | 10383 ft | 134 kts | 256° |
| 2026-04-27 12:08 | 27.31830 | 33.67331 | 10739 ft | 136 kts | 255° |
| 2026-04-27 12:08 | 27.31533 | 33.66320 | 11101 ft | 137 kts | 256° |
| 2026-04-27 12:09 | 27.31233 | 33.65301 | 11473 ft | 137 kts | 255° |
| 2026-04-27 12:09 | 27.30931 | 33.64278 | 11831 ft | 139 kts | 256° |
| 2026-04-27 12:09 | 27.30627 | 33.63245 | 12188 ft | 140 kts | 256° |
| 2026-04-27 12:09 | 27.30324 | 33.62218 | 12550 ft | 140 kts | 256° |
| 2026-04-27 12:10 | 27.30016 | 33.61172 | 12922 ft | 141 kts | 256° |
| 2026-04-27 12:10 | 27.29705 | 33.60120 | 13295 ft | 142 kts | 256° |
| 2026-04-27 12:10 | 27.29392 | 33.59058 | 13664 ft | 144 kts | 256° |
| 2026-04-27 12:10 | 27.29076 | 33.57989 | 13996 ft | 144 kts | 256° |
| 2026-04-27 12:11 | 27.28759 | 33.56912 | 14317 ft | 146 kts | 256° |
| 2026-04-27 12:11 | 27.28438 | 33.55825 | 14641 ft | 147 kts | 256° |
| 2026-04-27 12:11 | 27.28115 | 33.54730 | 14961 ft | 148 kts | 256° |
| 2026-04-27 12:11 | 27.27787 | 33.53625 | 15277 ft | 149 kts | 256° |
| 2026-04-27 12:12 | 27.27459 | 33.52514 | 15601 ft | 150 kts | 256° |
| 2026-04-27 12:12 | 27.27128 | 33.51392 | 15924 ft | 152 kts | 256° |
| 2026-04-27 12:12 | 27.26798 | 33.50279 | 16239 ft | 153 kts | 256° |
| 2026-04-27 12:12 | 27.26462 | 33.49141 | 16557 ft | 154 kts | 256° |
| 2026-04-27 12:13 | 27.26123 | 33.47997 | 16880 ft | 155 kts | 256° |
| 2026-04-27 12:13 | 27.25783 | 33.46843 | 17195 ft | 156 kts | 256° |
| 2026-04-27 12:13 | 27.25440 | 33.45678 | 17509 ft | 158 kts | 256° |
| 2026-04-27 12:13 | 27.25092 | 33.44503 | 17819 ft | 159 kts | 256° |
| 2026-04-27 12:14 | 27.24743 | 33.43317 | 18145 ft | 160 kts | 256° |
| 2026-04-27 12:14 | 27.24511 | 33.42532 | 18335 ft | 160 kts | 256° |
| 2026-04-27 12:14 | 27.24159 | 33.41341 | 18610 ft | 161 kts | 256° |
| 2026-04-27 12:14 | 27.23806 | 33.40144 | 18896 ft | 161 kts | 256° |
| 2026-04-27 12:15 | 27.23451 | 33.38944 | 19177 ft | 162 kts | 256° |
| 2026-04-27 12:15 | 27.22978 | 33.37346 | 19552 ft | 163 kts | 256° |
| 2026-04-27 12:15 | 27.22736 | 33.36527 | 19743 ft | 164 kts | 256° |
| 2026-04-27 12:15 | 27.22373 | 33.35300 | 19917 ft | 171 kts | 256° |
| 2026-04-27 12:16 | 27.21988 | 33.33977 | 19934 ft | 185 kts | 256° |
| 2026-04-27 12:16 | 27.21766 | 33.32545 | 19938 ft | 193 kts | 275° |
| 2026-04-27 12:16 | 27.21919 | 33.31002 | 19942 ft | 204 kts | 276° |
| 2026-04-27 12:16 | 27.22040 | 33.29377 | 19942 ft | 215 kts | 275° |
| 2026-04-27 12:17 | 27.22178 | 33.27669 | 19938 ft | 223 kts | 276° |
| 2026-04-27 12:17 | 27.22333 | 33.25913 | 19936 ft | 229 kts | 276° |
| 2026-04-27 12:17 | 27.22480 | 33.24113 | 19941 ft | 233 kts | 275° |
| 2026-04-27 12:17 | 27.22631 | 33.22286 | 19943 ft | 236 kts | 276° |
| 2026-04-27 12:18 | 27.22782 | 33.20439 | 19926 ft | 238 kts | 276° |
| 2026-04-27 12:18 | 27.22931 | 33.18588 | 19944 ft | 239 kts | 276° |
| 2026-04-27 12:18 | 27.23085 | 33.16742 | 19941 ft | 240 kts | 276° |
| 2026-04-27 12:18 | 27.23238 | 33.14868 | 19944 ft | 241 kts | 276° |
| 2026-04-27 12:19 | 27.23392 | 33.12986 | 19947 ft | 242 kts | 276° |
| 2026-04-27 12:19 | 27.23545 | 33.11101 | 19947 ft | 242 kts | 276° |
| 2026-04-27 12:19 | 27.23700 | 33.09207 | 19943 ft | 243 kts | 276° |
| 2026-04-27 12:19 | 27.23854 | 33.07317 | 19944 ft | 244 kts | 276° |
| 2026-04-27 12:20 | 27.24008 | 33.05419 | 19937 ft | 244 kts | 276° |
| 2026-04-27 12:20 | 27.24158 | 33.03519 | 19944 ft | 244 kts | 276° |
| 2026-04-27 12:20 | 27.24316 | 33.01641 | 19942 ft | 244 kts | 276° |
| 2026-04-27 12:20 | 27.24470 | 32.99742 | 19948 ft | 245 kts | 276° |
| 2026-04-27 12:21 | 27.24622 | 32.97832 | 19948 ft | 245 kts | 276° |
| 2026-04-27 12:21 | 27.24775 | 32.95923 | 19951 ft | 245 kts | 276° |
| 2026-04-27 12:21 | 27.24929 | 32.94011 | 19945 ft | 245 kts | 276° |
| 2026-04-27 12:21 | 27.25081 | 32.92099 | 19946 ft | 246 kts | 276° |
| 2026-04-27 12:22 | 27.25235 | 32.90189 | 19951 ft | 246 kts | 276° |
| 2026-04-27 12:22 | 27.25389 | 32.88276 | 19947 ft | 246 kts | 276° |
| 2026-04-27 12:22 | 27.25542 | 32.86358 | 19948 ft | 246 kts | 276° |
| 2026-04-27 12:22 | 27.25694 | 32.84443 | 19948 ft | 246 kts | 276° |
| 2026-04-27 12:23 | 27.25847 | 32.82528 | 19951 ft | 246 kts | 276° |
| 2026-04-27 12:23 | 27.25999 | 32.80612 | 19952 ft | 246 kts | 276° |
| 2026-04-27 12:23 | 27.26150 | 32.78697 | 19951 ft | 246 kts | 276° |
| 2026-04-27 12:23 | 27.26302 | 32.76780 | 19949 ft | 246 kts | 276° |
| 2026-04-27 12:24 | 27.26451 | 32.74887 | 19948 ft | 246 kts | 276° |
| 2026-04-27 12:24 | 27.26602 | 32.72970 | 19954 ft | 247 kts | 276° |
| 2026-04-27 12:24 | 27.26753 | 32.71047 | 19951 ft | 247 kts | 276° |
| 2026-04-27 12:24 | 27.26905 | 32.69121 | 19952 ft | 247 kts | 276° |
| 2026-04-27 12:25 | 27.27056 | 32.67202 | 19949 ft | 247 kts | 276° |
| 2026-04-27 12:25 | 27.27205 | 32.65283 | 19951 ft | 246 kts | 276° |
| 2026-04-27 12:25 | 27.27356 | 32.63362 | 19953 ft | 247 kts | 276° |
| 2026-04-27 12:25 | 27.27506 | 32.61437 | 19952 ft | 247 kts | 276° |
| 2026-04-27 12:26 | 27.27656 | 32.59515 | 19950 ft | 247 kts | 276° |
| 2026-04-27 12:26 | 27.27805 | 32.57591 | 19949 ft | 247 kts | 276° |
| 2026-04-27 12:26 | 27.27953 | 32.55666 | 19950 ft | 247 kts | 276° |
| 2026-04-27 12:26 | 27.28101 | 32.53763 | 19955 ft | 247 kts | 276° |
| 2026-04-27 12:27 | 27.28251 | 32.51840 | 19950 ft | 247 kts | 276° |
| 2026-04-27 12:27 | 27.28399 | 32.49920 | 19950 ft | 247 kts | 276° |
| 2026-04-27 12:27 | 27.28546 | 32.47989 | 19958 ft | 247 kts | 276° |
| 2026-04-27 12:27 | 27.28694 | 32.46065 | 19954 ft | 248 kts | 276° |
| 2026-04-27 12:28 | 27.28843 | 32.44131 | 19950 ft | 248 kts | 276° |
| 2026-04-27 12:28 | 27.28990 | 32.42206 | 19953 ft | 248 kts | 276° |
| 2026-04-27 12:28 | 27.29138 | 32.40276 | 19951 ft | 248 kts | 276° |
| 2026-04-27 12:28 | 27.29284 | 32.38344 | 19957 ft | 248 kts | 276° |
| 2026-04-27 12:29 | 27.29432 | 32.36407 | 19951 ft | 248 kts | 276° |
| 2026-04-27 12:29 | 27.29580 | 32.34468 | 19955 ft | 249 kts | 276° |
| 2026-04-27 12:29 | 27.29724 | 32.32526 | 19953 ft | 250 kts | 278° |
| 2026-04-27 12:29 | 27.30226 | 32.30668 | 19955 ft | 250 kts | 295° |
| 2026-04-27 12:30 | 27.31218 | 32.29052 | 19953 ft | 253 kts | 310° |
| 2026-04-27 12:30 | 27.32623 | 32.27835 | 19963 ft | 259 kts | 326° |
| 2026-04-27 12:30 | 27.34335 | 32.27126 | 19966 ft | 265 kts | 339° |
| 2026-04-27 12:30 | 27.36115 | 32.26580 | 19966 ft | 265 kts | 338° |
| 2026-04-27 12:31 | 27.37893 | 32.26012 | 19970 ft | 265 kts | 338° |
| 2026-04-27 12:31 | 27.39670 | 32.25446 | 19972 ft | 265 kts | 338° |
| 2026-04-27 12:31 | 27.41446 | 32.24886 | 19975 ft | 265 kts | 338° |
| 2026-04-27 12:31 | 27.43225 | 32.24324 | 19974 ft | 265 kts | 338° |
| 2026-04-27 12:32 | 27.44999 | 32.23760 | 19977 ft | 265 kts | 338° |
| 2026-04-27 12:32 | 27.46756 | 32.23203 | 19980 ft | 265 kts | 338° |
| 2026-04-27 12:32 | 27.48545 | 32.22628 | 19976 ft | 269 kts | 338° |
| 2026-04-27 12:32 | 27.50354 | 32.22053 | 19981 ft | 271 kts | 338° |
| 2026-04-27 12:33 | 27.52179 | 32.21481 | 19981 ft | 273 kts | 339° |
| 2026-04-27 12:33 | 27.54014 | 32.20900 | 19979 ft | 275 kts | 338° |
| 2026-04-27 12:33 | 27.55858 | 32.20313 | 19987 ft | 276 kts | 338° |
| 2026-04-27 12:33 | 27.57707 | 32.19726 | 19990 ft | 277 kts | 338° |
| 2026-04-27 12:34 | 27.59570 | 32.19135 | 19989 ft | 278 kts | 338° |
| 2026-04-27 12:34 | 27.61429 | 32.18543 | 19992 ft | 278 kts | 338° |
| 2026-04-27 12:34 | 27.63295 | 32.17951 | 19996 ft | 279 kts | 338° |
| 2026-04-27 12:34 | 27.65164 | 32.17356 | 19995 ft | 279 kts | 338° |
| 2026-04-27 12:35 | 27.67037 | 32.16761 | 19996 ft | 279 kts | 339° |
| 2026-04-27 12:35 | 27.68908 | 32.16165 | 20001 ft | 279 kts | 338° |
| 2026-04-27 12:35 | 27.70759 | 32.15575 | 20001 ft | 280 kts | 338° |
| 2026-04-27 12:35 | 27.72633 | 32.14978 | 20006 ft | 280 kts | 338° |
| 2026-04-27 12:36 | 27.74505 | 32.14381 | 20006 ft | 280 kts | 338° |
| 2026-04-27 12:36 | 27.76381 | 32.13784 | 20009 ft | 280 kts | 338° |
| 2026-04-27 12:36 | 27.78251 | 32.13188 | 20010 ft | 280 kts | 339° |
| 2026-04-27 12:36 | 27.80129 | 32.12590 | 20011 ft | 280 kts | 338° |
| 2026-04-27 12:37 | 27.82002 | 32.11991 | 20015 ft | 279 kts | 338° |
| 2026-04-27 12:37 | 27.83871 | 32.11394 | 20016 ft | 280 kts | 338° |
| 2026-04-27 12:37 | 27.85744 | 32.10796 | 20018 ft | 279 kts | 338° |
| 2026-04-27 12:37 | 27.87619 | 32.10196 | 20015 ft | 279 kts | 338° |
| 2026-04-27 12:38 | 27.89492 | 32.09598 | 20018 ft | 280 kts | 339° |
| 2026-04-27 12:38 | 27.91345 | 32.09006 | 20021 ft | 280 kts | 339° |
| 2026-04-27 12:38 | 27.93219 | 32.08406 | 20024 ft | 280 kts | 339° |
| 2026-04-27 12:38 | 27.95100 | 32.07803 | 20027 ft | 280 kts | 339° |
| 2026-04-27 12:39 | 27.96977 | 32.07204 | 20027 ft | 281 kts | 339° |
| 2026-04-27 12:39 | 27.98857 | 32.06603 | 20029 ft | 281 kts | 339° |
| 2026-04-27 12:39 | 28.00732 | 32.06002 | 20032 ft | 281 kts | 339° |
| 2026-04-27 12:39 | 28.02614 | 32.05398 | 20037 ft | 280 kts | 339° |
| 2026-04-27 12:40 | 28.04499 | 32.04796 | 20033 ft | 281 kts | 339° |
| 2026-04-27 12:40 | 28.06385 | 32.04211 | 20032 ft | 281 kts | 339° |
| 2026-04-27 12:40 | 28.08269 | 32.03625 | 20034 ft | 281 kts | 339° |
| 2026-04-27 12:40 | 28.10126 | 32.03042 | 20035 ft | 280 kts | 339° |
| 2026-04-27 12:41 | 28.12009 | 32.02451 | 20037 ft | 281 kts | 339° |
| 2026-04-27 12:41 | 28.13893 | 32.01862 | 20039 ft | 281 kts | 339° |
| 2026-04-27 12:41 | 28.15778 | 32.01271 | 20038 ft | 281 kts | 339° |
| 2026-04-27 12:41 | 28.17667 | 32.00679 | 20038 ft | 281 kts | 339° |
| 2026-04-27 12:42 | 28.19557 | 32.00086 | 20035 ft | 281 kts | 339° |
| 2026-04-27 12:42 | 28.21437 | 31.99496 | 20040 ft | 281 kts | 339° |
| 2026-04-27 12:42 | 28.23301 | 31.98911 | 20038 ft | 281 kts | 339° |
| 2026-04-27 12:42 | 28.25187 | 31.98318 | 20038 ft | 280 kts | 339° |
| 2026-04-27 12:43 | 28.27067 | 31.97728 | 20039 ft | 280 kts | 339° |
| 2026-04-27 12:43 | 28.28946 | 31.97138 | 20039 ft | 280 kts | 339° |
| 2026-04-27 12:43 | 28.30830 | 31.96545 | 20037 ft | 280 kts | 339° |
| 2026-04-27 12:43 | 28.32713 | 31.95954 | 20038 ft | 280 kts | 339° |
| 2026-04-27 12:44 | 28.34568 | 31.95370 | 20036 ft | 280 kts | 339° |
| 2026-04-27 12:44 | 28.36443 | 31.94780 | 20035 ft | 279 kts | 339° |
| 2026-04-27 12:44 | 28.38319 | 31.94191 | 20039 ft | 279 kts | 339° |
| 2026-04-27 12:44 | 28.40189 | 31.93598 | 20041 ft | 279 kts | 339° |
| 2026-04-27 12:45 | 28.42061 | 31.93009 | 20042 ft | 279 kts | 339° |
| 2026-04-27 12:45 | 28.43929 | 31.92421 | 20041 ft | 279 kts | 339° |
| 2026-04-27 12:45 | 28.45804 | 31.91830 | 20038 ft | 279 kts | 339° |
| 2026-04-27 12:45 | 28.47677 | 31.91238 | 20039 ft | 279 kts | 339° |
| 2026-04-27 12:46 | 28.49546 | 31.90648 | 20039 ft | 279 kts | 339° |
| 2026-04-27 12:46 | 28.51391 | 31.90066 | 20040 ft | 279 kts | 340° |
| 2026-04-27 12:46 | 28.53262 | 31.89476 | 20034 ft | 279 kts | 339° |
| 2026-04-27 12:46 | 28.55133 | 31.88885 | 20034 ft | 279 kts | 339° |
| 2026-04-27 12:47 | 28.56998 | 31.88294 | 20034 ft | 279 kts | 340° |
| 2026-04-27 12:47 | 28.58867 | 31.87704 | 20035 ft | 278 kts | 340° |
| 2026-04-27 12:47 | 28.60731 | 31.87115 | 20035 ft | 278 kts | 339° |
| 2026-04-27 12:47 | 28.62598 | 31.86524 | 20031 ft | 278 kts | 339° |
| 2026-04-27 12:48 | 28.64461 | 31.85934 | 20032 ft | 278 kts | 340° |
| 2026-04-27 12:48 | 28.66327 | 31.85343 | 20031 ft | 278 kts | 340° |
| 2026-04-27 12:48 | 28.68187 | 31.84754 | 20030 ft | 277 kts | 340° |
| 2026-04-27 12:48 | 28.70028 | 31.84171 | 20032 ft | 277 kts | 340° |
| 2026-04-27 12:49 | 28.71888 | 31.83581 | 20030 ft | 277 kts | 340° |
| 2026-04-27 12:49 | 28.73756 | 31.82989 | 20029 ft | 277 kts | 340° |
| 2026-04-27 12:49 | 28.75606 | 31.82403 | 20034 ft | 276 kts | 340° |
| 2026-04-27 12:49 | 28.77437 | 31.81821 | 20031 ft | 276 kts | 340° |
| 2026-04-27 12:50 | 28.79289 | 31.81232 | 20038 ft | 276 kts | 340° |
| 2026-04-27 12:50 | 28.81142 | 31.80645 | 20030 ft | 276 kts | 340° |
| 2026-04-27 12:50 | 28.82995 | 31.80057 | 20029 ft | 276 kts | 340° |
| 2026-04-27 12:50 | 28.84848 | 31.79466 | 20027 ft | 276 kts | 340° |
| 2026-04-27 12:51 | 28.86704 | 31.78877 | 20031 ft | 277 kts | 340° |
| 2026-04-27 12:51 | 28.88561 | 31.78287 | 20026 ft | 277 kts | 340° |
| 2026-04-27 12:51 | 28.90414 | 31.77697 | 20025 ft | 277 kts | 340° |
| 2026-04-27 12:51 | 28.92271 | 31.77105 | 20028 ft | 277 kts | 340° |
| 2026-04-27 12:52 | 28.94126 | 31.76516 | 20024 ft | 277 kts | 340° |
| 2026-04-27 12:52 | 28.95978 | 31.75926 | 20022 ft | 277 kts | 340° |
| 2026-04-27 12:52 | 28.97834 | 31.75334 | 20027 ft | 277 kts | 340° |
| 2026-04-27 12:52 | 28.99668 | 31.74748 | 20021 ft | 277 kts | 340° |
| 2026-04-27 12:53 | 29.03373 | 31.73544 | 20024 ft | 277 kts | 340° |
| 2026-04-27 12:53 | 29.05226 | 31.72945 | 20023 ft | 276 kts | 340° |
| 2026-04-27 12:53 | 29.07075 | 31.72347 | 20026 ft | 276 kts | 340° |
| 2026-04-27 12:54 | 29.08928 | 31.71748 | 20025 ft | 277 kts | 340° |
| 2026-04-27 12:54 | 29.10780 | 31.71147 | 20019 ft | 277 kts | 340° |
| 2026-04-27 12:54 | 29.12630 | 31.70547 | 20025 ft | 277 kts | 340° |
| 2026-04-27 12:54 | 29.14489 | 31.69946 | 20022 ft | 276 kts | 340° |
| 2026-04-27 12:55 | 29.16341 | 31.69345 | 20023 ft | 277 kts | 340° |
| 2026-04-27 12:55 | 29.18190 | 31.68745 | 20024 ft | 276 kts | 340° |
| 2026-04-27 12:55 | 29.20047 | 31.68142 | 20026 ft | 277 kts | 340° |
| 2026-04-27 12:55 | 29.21874 | 31.67549 | 20024 ft | 277 kts | 340° |
| 2026-04-27 12:56 | 29.23727 | 31.66947 | 20025 ft | 277 kts | 340° |
| 2026-04-27 12:56 | 29.25580 | 31.66346 | 20023 ft | 277 kts | 340° |
| 2026-04-27 12:56 | 29.27431 | 31.65743 | 20024 ft | 276 kts | 340° |
| 2026-04-27 12:56 | 29.29288 | 31.65139 | 20024 ft | 276 kts | 340° |
| 2026-04-27 12:57 | 29.31136 | 31.64538 | 19985 ft | 278 kts | 340° |
| 2026-04-27 12:57 | 29.33027 | 31.63922 | 19746 ft | 285 kts | 340° |
| 2026-04-27 12:57 | 29.34956 | 31.63292 | 19513 ft | 290 kts | 341° |
| 2026-04-27 12:57 | 29.36915 | 31.62653 | 19277 ft | 294 kts | 341° |
| 2026-04-27 12:58 | 29.38894 | 31.62011 | 19051 ft | 297 kts | 341° |
| 2026-04-27 12:58 | 29.40869 | 31.61372 | 18821 ft | 299 kts | 341° |
| 2026-04-27 12:58 | 29.42880 | 31.60715 | 18587 ft | 300 kts | 341° |
| 2026-04-27 12:58 | 29.44890 | 31.60059 | 18362 ft | 301 kts | 341° |
| 2026-04-27 12:59 | 29.46905 | 31.59403 | 18071 ft | 302 kts | 342° |
| 2026-04-27 12:59 | 29.48917 | 31.58759 | 17733 ft | 298 kts | 342° |
| 2026-04-27 12:59 | 29.50892 | 31.58127 | 17397 ft | 292 kts | 341° |
| 2026-04-27 12:59 | 29.52826 | 31.57451 | 17054 ft | 288 kts | 341° |
| 2026-04-27 13:00 | 29.54723 | 31.56822 | 16727 ft | 285 kts | 342° |
| 2026-04-27 13:00 | 29.56631 | 31.56225 | 16398 ft | 282 kts | 342° |
| 2026-04-27 13:00 | 29.58516 | 31.55611 | 16076 ft | 280 kts | 342° |
| 2026-04-27 13:00 | 29.60376 | 31.54994 | 15753 ft | 277 kts | 342° |
| 2026-04-27 13:01 | 29.62231 | 31.54385 | 15434 ft | 275 kts | 342° |
| 2026-04-27 13:01 | 29.64064 | 31.53787 | 15121 ft | 273 kts | 343° |
| 2026-04-27 13:01 | 29.65884 | 31.53190 | 14812 ft | 271 kts | 343° |
| 2026-04-27 13:01 | 29.67690 | 31.52597 | 14505 ft | 269 kts | 343° |
| 2026-04-27 13:02 | 29.68886 | 31.52204 | 14303 ft | 268 kts | 343° |
| 2026-04-27 13:02 | 29.71259 | 31.51426 | 13897 ft | 266 kts | 343° |
| 2026-04-27 13:02 | 29.73038 | 31.50838 | 13570 ft | 265 kts | 343° |
| 2026-04-27 13:02 | 29.74676 | 31.49908 | 13233 ft | 265 kts | 321° |
| 2026-04-27 13:03 | 29.75733 | 31.48183 | 12953 ft | 270 kts | 295° |
| 2026-04-27 13:03 | 29.75984 | 31.46772 | 12768 ft | 275 kts | 278° |
| 2026-04-27 13:03 | 29.75881 | 31.44568 | 12492 ft | 276 kts | 270° |
| 2026-04-27 13:03 | 29.75780 | 31.42377 | 12215 ft | 272 kts | 275° |
| 2026-04-27 13:04 | 29.75942 | 31.40230 | 11939 ft | 268 kts | 283° |
| 2026-04-27 13:04 | 29.76223 | 31.38113 | 11667 ft | 267 kts | 282° |
| 2026-04-27 13:04 | 29.76428 | 31.35987 | 11398 ft | 267 kts | 279° |
| 2026-04-27 13:04 | 29.76593 | 31.33861 | 11129 ft | 266 kts | 279° |
| 2026-04-27 13:05 | 29.76784 | 31.31743 | 10865 ft | 265 kts | 280° |
| 2026-04-27 13:05 | 29.76985 | 31.29630 | 10601 ft | 264 kts | 280° |
| 2026-04-27 13:05 | 29.77178 | 31.27552 | 10335 ft | 264 kts | 280° |
| 2026-04-27 13:05 | 29.77368 | 31.25450 | 10081 ft | 263 kts | 279° |
| 2026-04-27 13:06 | 29.77555 | 31.23355 | 9817 ft | 263 kts | 279° |
| 2026-04-27 13:06 | 29.77746 | 31.21266 | 9525 ft | 261 kts | 280° |
| 2026-04-27 13:06 | 29.77937 | 31.19188 | 9233 ft | 260 kts | 280° |
| 2026-04-27 13:06 | 29.78121 | 31.17118 | 8949 ft | 259 kts | 280° |
| 2026-04-27 13:07 | 29.78308 | 31.15062 | 8666 ft | 258 kts | 280° |
| 2026-04-27 13:07 | 29.78494 | 31.13009 | 8386 ft | 257 kts | 280° |
| 2026-04-27 13:07 | 29.78675 | 31.10968 | 8116 ft | 256 kts | 279° |
| 2026-04-27 13:07 | 29.78858 | 31.08932 | 7830 ft | 255 kts | 280° |
| 2026-04-27 13:08 | 29.79037 | 31.06932 | 7564 ft | 254 kts | 279° |
| 2026-04-27 13:08 | 29.79219 | 31.04913 | 7297 ft | 253 kts | 280° |
| 2026-04-27 13:08 | 29.79398 | 31.02902 | 7029 ft | 252 kts | 279° |
| 2026-04-27 13:08 | 29.79577 | 31.00899 | 6762 ft | 251 kts | 279° |
| 2026-04-27 13:09 | 29.79753 | 30.98905 | 6499 ft | 250 kts | 280° |
| 2026-04-27 13:09 | 29.79928 | 30.96918 | 6231 ft | 248 kts | 279° |
| 2026-04-27 13:09 | 29.80107 | 30.94977 | 5996 ft | 233 kts | 280° |
| 2026-04-27 13:09 | 29.80275 | 30.93209 | 5991 ft | 213 kts | 279° |
| 2026-04-27 13:10 | 29.80407 | 30.91570 | 5983 ft | 205 kts | 279° |
| 2026-04-27 13:10 | 29.80521 | 30.89952 | 5981 ft | 200 kts | 278° |
| 2026-04-27 13:10 | 29.80621 | 30.88342 | 5824 ft | 204 kts | 278° |
| 2026-04-27 13:10 | 29.80728 | 30.86687 | 5553 ft | 210 kts | 278° |
| 2026-04-27 13:11 | 29.80841 | 30.85005 | 5281 ft | 211 kts | 278° |
| 2026-04-27 13:11 | 29.80961 | 30.83323 | 5004 ft | 207 kts | 278° |
| 2026-04-27 13:11 | 29.81076 | 30.81743 | 4739 ft | 190 kts | 279° |
| 2026-04-27 13:11 | 29.81176 | 30.80254 | 4456 ft | 184 kts | 278° |
| 2026-04-27 13:12 | 29.81266 | 30.78802 | 4171 ft | 181 kts | 278° |
| 2026-04-27 13:12 | 29.81356 | 30.77375 | 3891 ft | 180 kts | 278° |
| 2026-04-27 13:12 | 29.81444 | 30.75950 | 3616 ft | 177 kts | 278° |
| 2026-04-27 13:12 | 29.81525 | 30.74535 | 3355 ft | 176 kts | 276° |
| 2026-04-27 13:13 | 29.81163 | 30.73169 | 3067 ft | 189 kts | 239° |
| 2026-04-27 13:13 | 29.80063 | 30.72362 | 2979 ft | 191 kts | 196° |
| 2026-04-27 13:13 | 29.78754 | 30.72419 | 2990 ft | 188 kts | 174° |
| 2026-04-27 13:13 | 29.77467 | 30.72646 | 2984 ft | 187 kts | 174° |
| 2026-04-27 13:14 | 29.76170 | 30.72863 | 2982 ft | 189 kts | 174° |
| 2026-04-27 13:14 | 29.74879 | 30.73083 | 2984 ft | 186 kts | 174° |
| 2026-04-27 13:14 | 29.73682 | 30.73642 | 2993 ft | 186 kts | 140° |
| 2026-04-27 13:14 | 29.72978 | 30.74861 | 2883 ft | 185 kts | 105° |
| 2026-04-27 13:15 | 29.72772 | 30.76261 | 2706 ft | 172 kts | 89° |
| 2026-04-27 13:15 | 29.72710 | 30.77616 | 2568 ft | 169 kts | 87° |
| 2026-04-27 13:15 | 29.72792 | 30.78939 | 2494 ft | 166 kts | 70° |
| 2026-04-27 13:15 | 29.73262 | 30.80100 | 2408 ft | 156 kts | 43° |
| 2026-04-27 13:16 | 29.74136 | 30.80753 | 2225 ft | 149 kts | 14° |
| 2026-04-27 13:16 | 29.75125 | 30.81131 | 1985 ft | 150 kts | 7° |
| 2026-04-27 13:16 | 29.76147 | 30.81364 | 1766 ft | 148 kts | 4° |
| 2026-04-27 13:16 | 29.77146 | 30.81523 | 1570 ft | 142 kts | 2° |
| 2026-04-27 13:17 | 29.78095 | 30.81711 | 1325 ft | 134 kts | 4° |
| 2026-04-27 13:17 | 29.79005 | 30.81885 | 1123 ft | 130 kts | 4° |
| 2026-04-27 13:17 | 29.79854 | 30.82059 | 927 ft | 115 kts | 5° |
| 2026-04-27 13:17 | 29.80490 | 30.82184 | 809 ft | 74 kts | 2° |
| 2026-04-27 13:18 | 29.80901 | 30.82263 | 794 ft | 43 kts | 12° |
| 2026-04-27 13:18 | 29.81103 | 30.82307 | 785 ft | 20 kts | 11° |
| 2026-04-27 13:18 | 29.81175 | 30.82378 | 782 ft | 13 kts | 86° |
| 2026-04-27 13:18 | 29.81164 | 30.82473 | 782 ft | 12 kts | 98° |
| 2026-04-27 13:19 | 29.81149 | 30.82560 | 782 ft | 11 kts | 97° |
| 2026-04-27 13:19 | 29.81153 | 30.82641 | 782 ft | 10 kts | 38° |
| 2026-04-27 13:19 | 29.81197 | 30.82661 | 780 ft | 5 kts | 66° |
| 2026-04-27 13:19 | 29.81191 | 30.82703 | 780 ft | 5 kts | 100° |
| 2026-04-27 13:20 | 29.81190 | 30.82705 | 780 ft | 0 kts | 100° |